createdAt,value
2023-02-12T00:01:00.535Z,5.25
2023-02-12T00:03:32.641Z,4.83
2023-02-12T00:06:03.258Z,5.00
2023-02-12T00:08:33.777Z,5.70
2023-02-12T00:11:13.756Z,4.62
2023-02-12T00:13:45.145Z,5.67
2023-02-12T00:16:18.621Z,6.08
2023-02-12T00:18:51.062Z,7.75
2023-02-12T00:21:22.349Z,7.92
2023-02-12T00:23:52.820Z,7.53
2023-02-12T00:26:24.476Z,8.20
2023-02-12T00:28:55.855Z,7.58
2023-02-12T00:31:28.946Z,8.45
2023-02-12T00:34:00.609Z,6.90
2023-02-12T00:36:33.292Z,6.95
2023-02-12T00:39:05.868Z,7.70
2023-02-12T00:41:36.302Z,7.50
2023-02-12T00:44:06.881Z,6.90
2023-02-12T00:46:38.529Z,5.87
2023-02-12T00:49:09.066Z,6.15
2023-02-12T00:51:39.538Z,6.15
2023-02-12T00:54:10.006Z,5.85
2023-02-12T00:56:40.498Z,7.33
2023-02-12T00:59:10.970Z,6.10
2023-02-12T01:01:41.563Z,7.28
2023-02-12T01:04:13.180Z,6.28
2023-02-12T01:06:43.619Z,4.72
2023-02-12T01:09:14.353Z,5.75
2023-02-12T01:11:44.816Z,6.20
2023-02-12T01:14:15.289Z,5.62
2023-02-12T01:16:45.755Z,5.35
2023-02-12T01:19:16.244Z,6.75
2023-02-12T01:21:47.900Z,6.28
2023-02-12T01:24:19.610Z,6.80
2023-02-12T01:26:50.100Z,6.22
2023-02-12T01:29:21.709Z,8.75
2023-02-12T01:31:52.335Z,6.70
2023-02-12T01:34:22.933Z,8.05
2023-02-12T01:36:53.390Z,6.85
2023-02-12T01:39:25.064Z,6.80
2023-02-12T01:41:55.526Z,7.45
2023-02-12T01:44:29.238Z,6.83
2023-02-12T01:47:01.838Z,8.98
2023-02-12T01:49:41.458Z,9.85
2023-02-12T01:52:20.927Z,9.05
2023-02-12T01:54:56.175Z,10.85
2023-02-12T01:57:28.121Z,10.43
2023-02-12T02:00:01.301Z,10.75
2023-02-12T02:02:33.685Z,11.57
2023-02-12T02:05:05.453Z,10.50
2023-02-12T02:07:36.125Z,9.03
2023-02-12T02:10:08.950Z,11.00
2023-02-12T02:12:58.534Z,10.28
2023-02-12T02:15:32.172Z,9.88
2023-02-12T02:18:16.914Z,9.28
2023-02-12T02:21:25.425Z,9.85
2023-02-12T02:24:16.157Z,8.70
2023-02-12T02:27:10.720Z,8.40
2023-02-12T02:30:06.750Z,9.13
2023-02-12T02:32:58.064Z,9.50
2023-02-12T02:35:37.534Z,9.65
2023-02-12T02:38:13.936Z,7.78
2023-02-12T02:41:05.541Z,9.45
2023-02-12T02:43:41.891Z,9.83
2023-02-12T02:46:19.328Z,10.10
2023-02-12T02:48:56.107Z,10.80
2023-02-12T02:51:32.253Z,10.20
2023-02-12T02:54:14.632Z,8.20
2023-02-12T02:56:48.025Z,7.40
2023-02-12T02:59:24.183Z,8.50
2023-02-12T03:01:57.581Z,8.30
2023-02-12T03:04:32.646Z,8.13
2023-02-12T03:07:06.013Z,12.05
2023-02-12T03:09:54.761Z,11.75
2023-02-12T03:12:46.425Z,11.53
2023-02-12T03:15:22.869Z,11.85
2023-02-12T03:17:54.720Z,11.35
2023-02-12T03:20:31.689Z,9.98
2023-02-12T03:23:05.108Z,9.58
2023-02-12T03:25:38.445Z,10.68
2023-02-12T03:28:11.996Z,9.80
2023-02-12T03:30:51.703Z,9.80
2023-02-12T03:33:43.622Z,10.50
2023-02-12T03:36:28.843Z,10.88
2023-02-12T03:39:03.333Z,7.87
2023-02-12T03:41:51.767Z,7.83
2023-02-12T03:44:32.162Z,9.50
2023-02-12T03:47:20.723Z,7.67
2023-02-12T03:49:59.728Z,8.15
2023-02-12T03:52:31.237Z,7.75
2023-02-12T03:55:01.938Z,7.50
2023-02-12T03:57:35.780Z,8.40
2023-02-12T04:00:10.635Z,8.80
2023-02-12T04:02:41.783Z,8.63
2023-02-12T04:05:21.005Z,8.68
2023-02-12T04:07:53.135Z,8.50
2023-02-12T04:10:32.384Z,9.68
2023-02-12T04:13:05.744Z,8.75
2023-02-12T04:15:42.021Z,8.45
2023-02-12T04:18:24.328Z,8.70
2023-02-12T04:20:57.768Z,10.82
2023-02-12T04:23:58.525Z,11.63
2023-02-12T04:26:48.579Z,9.45
2023-02-12T04:29:46.388Z,8.88
2023-02-12T04:32:31.441Z,9.45
2023-02-12T04:35:10.245Z,8.98
2023-02-12T04:37:43.670Z,7.30
2023-02-12T04:40:18.071Z,8.53
2023-02-12T04:42:51.340Z,6.55
2023-02-12T04:45:25.959Z,8.40
2023-02-12T04:47:57.043Z,7.58
2023-02-12T04:50:28.332Z,8.75
2023-02-12T04:52:58.788Z,8.83
2023-02-12T04:55:29.471Z,9.10
2023-02-12T04:58:00.017Z,9.53
2023-02-12T05:00:30.564Z,8.28
2023-02-12T05:03:01.439Z,9.18
2023-02-12T05:05:31.891Z,8.45
2023-02-12T05:08:03.643Z,8.88
2023-02-12T05:10:35.305Z,8.98
2023-02-12T05:13:05.738Z,9.33
2023-02-12T05:15:36.261Z,10.45
2023-02-12T05:18:07.026Z,9.25
2023-02-12T05:20:37.513Z,9.35
2023-02-12T05:23:07.996Z,9.20
2023-02-12T05:25:38.459Z,9.58
2023-02-12T05:28:09.013Z,7.97
2023-02-12T05:30:39.664Z,8.98
2023-02-12T05:33:10.150Z,7.42
2023-02-12T05:35:40.612Z,10.10
2023-02-12T05:38:12.395Z,8.38
2023-02-12T05:40:43.425Z,9.40
2023-02-12T05:43:14.395Z,8.48
2023-02-12T05:45:45.323Z,9.50
2023-02-12T05:48:17.095Z,7.65
2023-02-12T05:50:47.550Z,8.78
2023-02-12T05:53:18.021Z,9.75
2023-02-12T05:55:48.712Z,9.03
2023-02-12T05:58:20.285Z,9.30
2023-02-12T06:00:50.766Z,7.47
2023-02-12T06:03:21.238Z,8.35
2023-02-12T06:05:55.073Z,8.95
2023-02-12T06:08:26.942Z,7.92
2023-02-12T06:11:03.689Z,9.18
2023-02-12T06:13:35.196Z,7.72
2023-02-12T06:16:06.159Z,7.60
2023-02-12T06:18:38.117Z,9.85
2023-02-12T06:21:08.603Z,9.15
2023-02-12T06:23:39.061Z,8.73
2023-02-12T06:26:10.541Z,8.53
2023-02-12T06:28:41.086Z,8.15
2023-02-12T06:31:23.372Z,7.87
2023-02-12T06:33:54.973Z,8.95
2023-02-12T06:36:26.203Z,9.90
2023-02-12T06:38:56.736Z,8.35
2023-02-12T06:41:27.247Z,9.20
2023-02-12T06:43:57.722Z,9.45
2023-02-12T06:46:28.579Z,7.28
2023-02-12T06:49:01.465Z,9.03
2023-02-12T06:51:32.490Z,9.08
2023-02-12T06:54:02.940Z,8.75
2023-02-12T06:56:33.555Z,9.40
2023-02-12T06:59:04.127Z,10.53
2023-02-12T07:01:35.968Z,9.43
2023-02-12T07:04:08.043Z,11.08
2023-02-12T07:06:38.835Z,11.90
2023-02-12T07:09:09.419Z,28.62
2023-02-12T07:11:40.050Z,42.30
2023-02-12T07:14:14.725Z,37.73
2023-02-12T07:16:45.457Z,27.15
2023-02-12T07:19:17.047Z,23.90
2023-02-12T07:21:49.173Z,21.20
2023-02-12T07:24:20.963Z,21.50
2023-02-12T07:26:51.557Z,28.57
2023-02-12T07:29:22.128Z,27.77
2023-02-12T07:31:52.805Z,22.75
2023-02-12T07:34:23.395Z,20.17
2023-02-12T07:36:54.029Z,18.52
2023-02-12T07:39:31.492Z,17.40
2023-02-12T07:42:02.406Z,15.63
2023-02-12T07:44:34.505Z,15.43
2023-02-12T07:47:06.301Z,15.63
2023-02-12T07:49:38.088Z,16.57
2023-02-12T07:52:09.095Z,15.90
2023-02-12T07:54:40.643Z,18.48
2023-02-12T07:57:11.267Z,16.20
2023-02-12T07:59:41.881Z,15.18
2023-02-12T08:02:12.597Z,14.05
2023-02-12T08:04:52.246Z,13.00
2023-02-12T08:07:22.900Z,12.28
2023-02-12T08:09:53.969Z,9.95
2023-02-12T08:12:24.491Z,10.95
2023-02-12T08:17:35.670Z,10.00
2023-02-12T08:20:06.838Z,9.93
2023-02-12T08:22:37.358Z,10.18
2023-02-12T08:25:09.621Z,9.95
2023-02-12T08:27:42.739Z,15.28
2023-02-12T08:30:15.493Z,24.87
2023-02-12T08:32:46.315Z,19.57
2023-02-12T08:35:17.588Z,16.57
2023-02-12T08:37:48.207Z,15.28
2023-02-12T08:40:18.851Z,10.85
2023-02-12T08:42:49.416Z,10.25
2023-02-12T08:45:21.062Z,9.58
2023-02-12T08:47:51.632Z,8.35
2023-02-12T08:50:22.169Z,8.68
2023-02-12T08:52:52.693Z,8.63
2023-02-12T08:55:23.250Z,7.55
2023-02-12T08:57:55.327Z,10.23
2023-02-12T09:00:25.962Z,8.60
2023-02-12T09:02:56.419Z,8.00
2023-02-12T09:05:26.964Z,7.10
2023-02-12T09:07:57.418Z,8.63
2023-02-12T09:10:27.997Z,7.60
2023-02-12T09:12:58.527Z,8.65
2023-02-12T09:15:28.989Z,8.43
2023-02-12T09:18:01.134Z,9.65
2023-02-12T09:20:32.086Z,9.60
2023-02-12T09:23:02.652Z,9.35
2023-02-12T09:25:35.080Z,11.48
2023-02-12T09:28:06.052Z,10.82
2023-02-12T09:30:38.768Z,12.18
2023-02-12T09:33:11.486Z,10.72
2023-02-12T09:35:42.280Z,13.48
2023-02-12T09:38:12.833Z,11.35
2023-02-12T09:41:07.858Z,13.78
2023-02-12T09:44:01.120Z,15.58
2023-02-12T09:46:40.315Z,19.17
2023-02-12T09:49:22.652Z,21.40
2023-02-12T09:51:55.021Z,18.30
2023-02-12T09:54:28.483Z,20.57
2023-02-12T09:57:01.596Z,19.77
2023-02-12T09:59:44.391Z,20.70
2023-02-12T10:02:17.191Z,16.95
2023-02-12T10:05:00.642Z,15.75
2023-02-12T10:07:36.960Z,13.15
2023-02-12T10:10:17.343Z,15.88
2023-02-12T10:13:09.190Z,11.90
2023-02-12T10:15:49.859Z,13.98
2023-02-12T10:18:39.978Z,12.95
2023-02-12T10:21:34.655Z,13.30
2023-02-12T10:24:29.415Z,14.75
2023-02-12T10:27:03.001Z,14.33
2023-02-12T10:29:36.897Z,14.98
2023-02-12T10:32:10.419Z,14.10
2023-02-12T10:34:42.930Z,10.35
2023-02-12T10:37:35.373Z,10.40
2023-02-12T10:40:11.766Z,9.33
2023-02-12T10:42:48.040Z,11.28
2023-02-12T10:45:21.781Z,11.33
2023-02-12T10:47:55.231Z,13.35
2023-02-12T10:50:44.018Z,9.35
2023-02-12T10:53:23.623Z,9.70
2023-02-12T10:55:57.332Z,12.93
2023-02-12T10:58:28.586Z,12.85
2023-02-12T11:01:02.186Z,13.38
2023-02-12T11:03:39.116Z,11.28
2023-02-12T11:06:28.038Z,11.10
2023-02-12T11:09:00.596Z,14.23
2023-02-12T11:11:33.680Z,13.85
2023-02-12T11:14:10.470Z,19.57
2023-02-12T11:16:44.083Z,16.00
2023-02-12T11:19:24.335Z,17.10
2023-02-12T11:22:07.621Z,13.78
2023-02-12T11:24:39.395Z,13.58
2023-02-12T11:27:29.069Z,16.55
2023-02-12T11:30:21.599Z,23.98
2023-02-12T11:32:53.544Z,12.95
2023-02-12T11:35:28.588Z,19.52
2023-02-12T11:38:02.747Z,15.68
2023-02-12T11:40:34.645Z,16.32
2023-02-12T11:43:10.921Z,20.00
2023-02-12T11:45:52.794Z,19.57
2023-02-12T11:48:29.417Z,15.45
2023-02-12T11:51:03.180Z,16.75
2023-02-12T11:53:40.671Z,14.55
2023-02-12T11:56:15.388Z,14.33
2023-02-12T11:58:48.777Z,15.43
2023-02-12T12:01:25.287Z,16.73
2023-02-12T12:04:17.780Z,15.30
2023-02-12T12:06:54.424Z,16.67
2023-02-12T12:09:52.450Z,15.48
2023-02-12T12:12:30.242Z,15.15
2023-02-12T12:15:41.282Z,16.30
2023-02-12T12:18:49.453Z,14.68
2023-02-12T12:21:41.756Z,13.15
2023-02-12T12:24:29.030Z,13.22
2023-02-12T12:27:03.589Z,10.78
2023-02-12T12:29:55.718Z,11.83
2023-02-12T12:32:29.340Z,11.35
2023-02-12T12:35:00.122Z,11.43
2023-02-12T12:37:40.606Z,13.03
2023-02-12T12:40:21.414Z,13.35
2023-02-12T12:43:11.322Z,11.33
2023-02-12T12:45:45.253Z,11.63
2023-02-12T12:48:40.044Z,13.03
2023-02-12T12:51:35.998Z,11.00
2023-02-12T12:54:24.808Z,11.55
2023-02-12T12:57:04.227Z,13.93
2023-02-12T12:59:49.503Z,13.25
2023-02-12T13:02:50.678Z,14.18
2023-02-12T13:05:55.349Z,13.78
2023-02-12T13:08:38.033Z,16.20
2023-02-12T13:11:11.767Z,15.55
2023-02-12T13:13:46.123Z,12.10
2023-02-12T13:16:22.407Z,15.78
2023-02-12T13:19:21.036Z,15.93
2023-02-12T13:22:00.473Z,17.82
2023-02-12T13:24:47.399Z,15.68
2023-02-12T13:27:23.614Z,18.45
2023-02-12T13:30:03.089Z,15.75
2023-02-12T13:32:37.658Z,17.98
2023-02-12T13:35:11.284Z,16.93
2023-02-12T13:37:50.842Z,16.93
2023-02-12T13:40:24.449Z,15.68
2023-02-12T13:43:01.205Z,18.07
2023-02-12T13:45:43.861Z,17.87
2023-02-12T13:48:23.463Z,16.93
2023-02-12T13:51:02.956Z,22.42
2023-02-12T13:53:42.435Z,20.48
2023-02-12T13:56:31.164Z,19.75
2023-02-12T13:59:02.973Z,19.02
2023-02-12T14:01:46.908Z,19.55
2023-02-12T14:04:36.223Z,18.95
2023-02-12T14:07:12.987Z,19.45
2023-02-12T14:09:55.912Z,19.10
2023-02-12T14:12:29.783Z,18.60
2023-02-12T14:15:12.778Z,18.40
2023-02-12T14:17:45.518Z,21.68
2023-02-12T14:20:32.355Z,23.12
2023-02-12T14:23:29.117Z,25.52
2023-02-12T14:26:06.534Z,22.60
2023-02-12T14:29:01.497Z,22.50
2023-02-12T14:31:38.033Z,19.65
2023-02-12T14:34:12.302Z,23.12
2023-02-12T14:36:46.579Z,22.95
2023-02-12T14:39:26.088Z,28.00
2023-02-12T14:42:02.510Z,25.23
2023-02-12T14:44:38.859Z,20.82
2023-02-12T14:47:32.982Z,24.18
2023-02-12T14:50:18.442Z,22.52
2023-02-12T14:52:52.733Z,20.32
2023-02-12T14:55:30.206Z,21.97
2023-02-12T14:58:03.782Z,21.95
2023-02-12T15:00:42.601Z,20.15
2023-02-12T15:03:19.956Z,21.23
2023-02-12T15:06:05.531Z,23.15
2023-02-12T15:08:48.310Z,20.55
2023-02-12T15:11:38.802Z,20.75
2023-02-12T15:14:27.324Z,26.15
2023-02-12T15:17:03.702Z,22.98
2023-02-12T15:19:43.612Z,24.18
2023-02-12T15:22:24.084Z,27.05
2023-02-12T15:24:55.695Z,28.98
2023-02-12T15:27:26.538Z,26.87
2023-02-12T15:29:57.208Z,22.67
2023-02-12T15:32:30.914Z,22.17
2023-02-12T15:35:07.992Z,22.62
2023-02-12T15:37:41.329Z,23.30
2023-02-12T15:40:15.305Z,18.35
2023-02-12T15:43:02.215Z,19.10
2023-02-12T15:45:35.619Z,19.05
2023-02-12T15:48:15.181Z,16.90
2023-02-12T15:51:13.045Z,17.87
2023-02-12T15:53:45.691Z,16.23
2023-02-12T15:56:19.644Z,16.90
2023-02-12T15:58:53.651Z,11.65
2023-02-12T16:01:29.691Z,12.63
2023-02-12T16:04:03.898Z,12.18
2023-02-12T16:06:38.164Z,12.35
2023-02-12T16:09:11.672Z,13.78
2023-02-12T16:11:48.712Z,13.80
2023-02-12T16:14:31.645Z,14.15
2023-02-12T16:17:03.776Z,13.93
2023-02-12T16:19:36.676Z,11.55
2023-02-12T16:24:32.306Z,12.13
2023-02-12T16:27:11.976Z,11.28
2023-02-12T16:29:48.009Z,14.00
2023-02-12T16:32:34.259Z,11.25
2023-02-12T16:35:13.949Z,10.82
2023-02-12T16:37:50.483Z,12.93
2023-02-12T16:40:26.589Z,12.53
2023-02-12T16:43:09.245Z,9.73
2023-02-12T16:45:42.316Z,13.40
2023-02-12T16:48:25.453Z,15.18
2023-02-12T16:50:59.536Z,12.55
2023-02-12T16:53:46.445Z,13.83
2023-02-12T16:56:21.246Z,17.80
2023-02-12T16:58:57.443Z,18.07
2023-02-12T17:01:30.808Z,16.85
2023-02-12T17:04:03.421Z,18.95
2023-02-12T17:06:34.752Z,18.15
2023-02-12T17:09:05.508Z,17.15
2023-02-12T17:11:36.289Z,17.77
2023-02-12T17:14:07.146Z,18.85
2023-02-12T17:16:37.861Z,20.95
2023-02-12T17:19:08.657Z,23.47
2023-02-12T17:21:41.856Z,23.98
2023-02-12T17:24:27.372Z,25.32
2023-02-12T17:26:58.105Z,27.30
2023-02-12T17:29:31.333Z,25.15
2023-02-12T17:32:03.253Z,25.82
2023-02-12T17:34:47.773Z,23.20
2023-02-12T17:37:07.357Z,24.25
2023-02-12T17:39:40.244Z,21.82
2023-02-12T17:42:11.774Z,21.82
2023-02-12T17:44:43.416Z,23.65
2023-02-12T17:47:14.007Z,22.95
2023-02-12T17:49:45.380Z,28.62
2023-02-12T17:52:16.406Z,27.07
2023-02-12T17:54:48.750Z,28.15
2023-02-12T17:57:20.239Z,21.62
2023-02-12T17:59:50.967Z,22.40
2023-02-12T18:02:21.963Z,23.27
2023-02-12T18:04:53.422Z,21.95
2023-02-12T18:07:25.242Z,23.52
2023-02-12T18:09:55.949Z,24.87
2023-02-12T18:12:26.575Z,22.25
2023-02-12T18:14:59.357Z,21.50
2023-02-12T18:17:31.843Z,20.85
2023-02-12T18:20:02.487Z,18.52
2023-02-12T18:22:35.184Z,19.80
2023-02-12T18:25:06.194Z,17.20
2023-02-12T18:27:39.029Z,18.00
2023-02-12T18:30:11.200Z,19.20
2023-02-12T18:32:41.955Z,16.17
2023-02-12T18:35:12.701Z,16.35
2023-02-12T18:37:45.134Z,16.23
2023-02-12T18:40:17.390Z,17.23
2023-02-12T18:42:47.935Z,15.88
2023-02-12T18:45:19.615Z,16.67
2023-02-12T18:47:51.806Z,18.50
2023-02-12T18:50:22.935Z,17.60
2023-02-12T18:52:53.620Z,16.27
2023-02-12T18:55:25.744Z,15.88
2023-02-12T18:57:56.316Z,15.48
2023-02-12T19:00:27.218Z,16.67
2023-02-12T19:02:58.156Z,16.02
2023-02-12T19:05:31.894Z,12.35
2023-02-12T19:08:02.528Z,14.23
2023-02-12T19:10:34.653Z,13.15
2023-02-12T19:13:06.102Z,13.68
2023-02-12T19:15:38.397Z,15.93
2023-02-12T19:18:10.127Z,12.13
2023-02-12T19:20:42.502Z,15.00
2023-02-12T19:23:14.646Z,13.08
2023-02-12T19:25:45.785Z,13.18
2023-02-12T19:28:16.461Z,14.98
2023-02-12T19:30:47.034Z,14.50
2023-02-12T19:33:17.686Z,15.10
2023-02-12T19:35:52.755Z,15.20
2023-02-12T19:38:23.442Z,12.00
2023-02-12T19:40:55.886Z,11.33
2023-02-12T19:43:26.904Z,11.48
2023-02-12T19:46:10.278Z,15.20
2023-02-12T19:48:41.164Z,12.90
2023-02-12T19:51:17.797Z,12.63
2023-02-12T19:53:49.811Z,10.25
2023-02-12T19:56:20.979Z,12.80
2023-02-12T19:58:51.689Z,14.47
2023-02-12T20:01:23.210Z,12.82
2023-02-12T20:03:54.712Z,13.30
2023-02-12T20:06:31.163Z,10.63
2023-02-12T20:09:04.255Z,10.70
2023-02-12T20:11:40.793Z,12.58
2023-02-12T20:14:14.578Z,11.65
2023-02-12T20:16:47.320Z,10.80
2023-02-12T20:19:24.270Z,11.57
2023-02-12T20:21:56.797Z,13.13
2023-02-12T20:24:30.071Z,12.00
2023-02-12T20:27:03.466Z,9.88
2023-02-12T20:29:35.224Z,11.08
2023-02-12T20:32:06.409Z,11.63
2023-02-12T20:34:50.235Z,10.78
2023-02-12T20:37:10.533Z,12.25
2023-02-12T20:39:42.667Z,13.75
2023-02-12T20:42:13.298Z,13.22
2023-02-12T20:44:45.163Z,13.38
2023-02-12T20:47:16.611Z,12.07
2023-02-12T20:49:48.486Z,10.30
2023-02-12T20:52:19.495Z,11.68
2023-02-12T20:54:51.181Z,10.95
2023-02-12T20:57:22.927Z,12.37
2023-02-12T20:59:53.992Z,13.10
2023-02-12T21:02:24.608Z,11.75
2023-02-12T21:04:56.457Z,12.10
2023-02-12T21:07:27.166Z,13.50
2023-02-12T21:09:58.057Z,12.35
2023-02-12T21:12:29.028Z,12.58
2023-02-12T21:14:59.674Z,14.30
2023-02-12T21:17:30.463Z,12.23
2023-02-12T21:20:01.133Z,13.93
2023-02-12T21:22:31.898Z,10.98
2023-02-12T21:25:04.372Z,13.15
2023-02-12T21:27:36.973Z,14.38
2023-02-12T21:30:09.837Z,15.40
2023-02-12T21:32:40.410Z,14.35
2023-02-12T21:35:11.352Z,12.50
2023-02-12T21:37:42.213Z,12.25
2023-02-12T21:40:13.334Z,12.43
2023-02-12T21:42:43.880Z,14.58
2023-02-12T21:45:14.448Z,12.30
2023-02-12T21:47:45.276Z,11.15
2023-02-12T21:50:16.139Z,11.15
2023-02-12T21:52:46.804Z,14.55
2023-02-12T21:55:17.520Z,10.82
2023-02-12T21:57:48.102Z,13.30
2023-02-12T22:00:19.448Z,11.10
2023-02-12T22:02:51.646Z,11.73
2023-02-12T22:05:24.885Z,10.85
2023-02-12T22:07:57.331Z,11.15
2023-02-12T22:10:29.427Z,12.07
2023-02-12T22:13:05.035Z,11.93
2023-02-12T22:15:38.531Z,12.18
2023-02-12T22:18:14.952Z,11.15
2023-02-12T22:20:46.030Z,10.18
2023-02-12T22:23:18.893Z,12.10
2023-02-12T22:25:51.870Z,12.13
2023-02-12T22:28:23.547Z,13.00
2023-02-12T22:30:57.554Z,9.65
2023-02-12T22:33:38.111Z,11.03
2023-02-12T22:36:12.845Z,10.72
2023-02-12T22:38:44.804Z,10.95
2023-02-12T22:41:20.495Z,11.88
2023-02-12T22:43:58.096Z,11.53
2023-02-12T22:46:30.819Z,11.12
2023-02-12T22:49:06.030Z,12.50
2023-02-12T22:54:14.000Z,12.35
2023-02-12T22:56:49.568Z,11.63
2023-02-12T22:59:25.555Z,12.60
2023-02-12T23:01:59.878Z,10.95
2023-02-12T23:04:33.385Z,11.78
2023-02-12T23:07:05.323Z,11.75
2023-02-12T23:09:43.179Z,13.58
2023-02-12T23:12:16.660Z,14.63
2023-02-12T23:14:48.547Z,12.53
2023-02-12T23:17:21.323Z,12.70
2023-02-12T23:19:53.890Z,12.60
2023-02-12T23:22:26.838Z,14.73
2023-02-12T23:25:01.909Z,15.08
2023-02-12T23:27:34.335Z,12.45
2023-02-12T23:30:15.264Z,14.07
2023-02-12T23:32:48.688Z,13.05
2023-02-12T23:35:20.393Z,12.15
2023-02-12T23:40:34.573Z,15.65
2023-02-12T23:43:07.126Z,12.98
2023-02-12T23:45:42.920Z,14.00
2023-02-12T23:48:15.946Z,13.28
2023-02-12T23:50:50.080Z,12.50
2023-02-12T23:53:24.183Z,12.18
2023-02-12T23:55:59.049Z,12.70
2023-02-12T23:58:33.925Z,14.93
